sensor_id;sensor_type;location;lat;lon;timestamp;noise_LAeq;noise_LA_min;noise_LA_max;noise_LA01;noise_LA95
66589;Laerm;53447;49.272;11.070;2023-08-06T00:02:15;45.98;42.18;58.24;;
66589;Laerm;53447;49.272;11.070;2023-08-06T00:04:40;46.72;42.27;56.60;;
66589;Laerm;53447;49.272;11.070;2023-08-06T00:07:05;45.45;42.40;59.95;;
66589;Laerm;53447;49.272;11.070;2023-08-06T00:09:31;44.17;40.91;53.64;;
66589;Laerm;53447;49.272;11.070;2023-08-06T00:11:56;41.62;39.21;48.55;;
66589;Laerm;53447;49.272;11.070;2023-08-06T00:14:21;50.90;39.03;68.83;;
66589;Laerm;53447;49.272;11.070;2023-08-06T00:16:46;41.00;38.31;44.44;;
66589;Laerm;53447;49.272;11.070;2023-08-06T00:19:11;40.86;36.55;43.77;;
66589;Laerm;53447;49.272;11.070;2023-08-06T00:21:37;42.08;38.42;46.70;;
66589;Laerm;53447;49.272;11.070;2023-08-06T00:24:02;40.97;36.38;42.97;;
66589;Laerm;53447;49.272;11.070;2023-08-06T00:26:27;40.83;36.71;43.30;;
66589;Laerm;53447;49.272;11.070;2023-08-06T00:28:53;40.98;36.20;52.27;;
66589;Laerm;53447;49.272;11.070;2023-08-06T00:31:18;40.83;35.82;46.50;;
66589;Laerm;53447;49.272;11.070;2023-08-06T00:33:43;40.83;36.71;43.30;;
66589;Laerm;53447;49.272;11.070;2023-08-06T00:36:08;41.51;38.42;46.17;;
66589;Laerm;53447;49.272;11.070;2023-08-06T00:38:33;40.95;36.20;43.80;;
66589;Laerm;53447;49.272;11.070;2023-08-06T00:40:59;40.90;36.20;43.33;;
66589;Laerm;53447;49.272;11.070;2023-08-06T00:43:24;41.42;36.87;46.70;;
66589;Laerm;53447;49.272;11.070;2023-08-06T00:45:49;41.21;36.87;45.32;;
66589;Laerm;53447;49.272;11.070;2023-08-06T00:48:14;41.24;36.71;54.03;;
66589;Laerm;53447;49.272;11.070;2023-08-06T00:50:40;42.83;39.21;57.54;;
66589;Laerm;53447;49.272;11.070;2023-08-06T00:53:05;44.23;40.53;58.77;;
66589;Laerm;53447;49.272;11.070;2023-08-06T00:55:31;41.35;39.48;50.80;;
66589;Laerm;53447;49.272;11.070;2023-08-06T00:57:56;40.97;36.71;50.14;;
66589;Laerm;53447;49.272;11.070;2023-08-06T01:00:22;40.89;36.71;43.26;;
66589;Laerm;53447;49.272;11.070;2023-08-06T01:02:48;40.78;34.70;43.33;;
66589;Laerm;53447;49.272;11.070;2023-08-06T01:05:13;40.75;35.41;48.90;;
66589;Laerm;53447;49.272;11.070;2023-08-06T01:12:49;40.74;36.55;43.77;;
66589;Laerm;53447;49.272;11.070;2023-08-06T01:15:18;41.61;36.38;44.41;;
66589;Laerm;53447;49.272;11.070;2023-08-06T01:17:45;40.78;35.41;45.07;;
66589;Laerm;53447;49.272;11.070;2023-08-06T01:20:10;41.19;34.44;43.44;;
66589;Laerm;53447;49.272;11.070;2023-08-06T01:22:36;41.15;36.02;50.22;;
66589;Laerm;53447;49.272;11.070;2023-08-06T01:25:01;40.52;35.19;42.53;;
66589;Laerm;53447;49.272;11.070;2023-08-06T01:27:28;40.64;35.19;52.00;;
66589;Laerm;53447;49.272;11.070;2023-08-06T01:30:07;40.64;34.84;50.80;;
66589;Laerm;53447;49.272;11.070;2023-08-06T01:32:35;40.63;35.19;49.93;;
66589;Laerm;53447;49.272;11.070;2023-08-06T01:35:02;40.90;35.62;42.93;;
66589;Laerm;53447;49.272;11.070;2023-08-06T01:37:28;41.04;34.44;43.33;;
66589;Laerm;53447;49.272;11.070;2023-08-06T01:39:54;40.84;34.95;49.40;;
66589;Laerm;53447;49.272;11.070;2023-08-06T01:42:19;40.52;34.16;43.57;;
66589;Laerm;53447;49.272;11.070;2023-08-06T01:44:45;40.46;32.81;43.51;;
66589;Laerm;53447;49.272;11.070;2023-08-06T01:47:10;40.55;34.16;43.12;;
66589;Laerm;53447;49.272;11.070;2023-08-06T01:49:35;40.58;33.54;44.57;;
66589;Laerm;53447;49.272;11.070;2023-08-06T01:52:00;40.54;34.44;42.81;;
66589;Laerm;53447;49.272;11.070;2023-08-06T01:54:26;41.39;37.31;51.17;;
66589;Laerm;53447;49.272;11.070;2023-08-06T01:56:51;40.50;34.16;42.93;;
66589;Laerm;53447;49.272;11.070;2023-08-06T01:59:16;40.83;34.60;43.67;;
66589;Laerm;53447;49.272;11.070;2023-08-06T02:01:41;41.62;35.19;44.41;;
66589;Laerm;53447;49.272;11.070;2023-08-06T02:04:07;40.52;33.86;46.09;;
66589;Laerm;53447;49.272;11.070;2023-08-06T02:06:32;41.11;33.86;44.73;;
66589;Laerm;53447;49.272;11.070;2023-08-06T02:08:57;40.34;33.54;42.77;;
66589;Laerm;53447;49.272;11.070;2023-08-06T02:11:22;40.51;33.54;43.19;;
66589;Laerm;53447;49.272;11.070;2023-08-06T02:13:47;40.28;33.54;42.81;;
66589;Laerm;53447;49.272;11.070;2023-08-06T02:16:13;40.55;34.44;43.78;;
66589;Laerm;53447;49.272;11.070;2023-08-06T02:18:38;40.60;33.19;42.85;;
66589;Laerm;53447;49.272;11.070;2023-08-06T02:21:03;40.35;34.16;42.69;;
66589;Laerm;53447;49.272;11.070;2023-08-06T02:23:28;40.57;34.70;42.65;;
66589;Laerm;53447;49.272;11.070;2023-08-06T02:26:03;40.54;34.16;42.73;;
66589;Laerm;53447;49.272;11.070;2023-08-06T02:28:29;40.94;34.44;44.22;;
66589;Laerm;53447;49.272;11.070;2023-08-06T02:30:55;42.29;39.39;47.85;;
66589;Laerm;53447;49.272;11.070;2023-08-06T02:33:20;40.62;34.70;43.12;;
66589;Laerm;53447;49.272;11.070;2023-08-06T02:35:45;41.21;34.95;45.26;;
66589;Laerm;53447;49.272;11.070;2023-08-06T02:38:11;41.51;37.96;44.78;;
66589;Laerm;53447;49.272;11.070;2023-08-06T02:40:36;41.94;38.31;46.24;;
66589;Laerm;53447;49.272;11.070;2023-08-06T02:43:01;41.96;35.41;50.30;;
66589;Laerm;53447;49.272;11.070;2023-08-06T02:45:26;43.04;37.49;56.26;;
66589;Laerm;53447;49.272;11.070;2023-08-06T02:47:51;40.90;34.44;46.78;;
66589;Laerm;53447;49.272;11.070;2023-08-06T02:50:17;40.49;34.16;42.65;;
66589;Laerm;53447;49.272;11.070;2023-08-06T02:52:42;40.63;33.86;42.97;;
66589;Laerm;53447;49.272;11.070;2023-08-06T02:55:07;40.32;34.16;42.81;;
66589;Laerm;53447;49.272;11.070;2023-08-06T02:57:32;40.55;33.54;43.23;;
66589;Laerm;53447;49.272;11.070;2023-08-06T02:59:57;40.33;33.86;42.97;;
66589;Laerm;53447;49.272;11.070;2023-08-06T03:02:23;40.30;33.86;42.61;;
66589;Laerm;53447;49.272;11.070;2023-08-06T03:04:48;40.60;33.86;42.77;;
66589;Laerm;53447;49.272;11.070;2023-08-06T03:07:13;40.49;34.44;42.31;;
66589;Laerm;53447;49.272;11.070;2023-08-06T03:09:38;40.68;33.86;43.04;;
66589;Laerm;53447;49.272;11.070;2023-08-06T03:12:04;41.15;34.70;44.25;;
66589;Laerm;53447;49.272;11.070;2023-08-06T03:14:29;43.31;40.11;50.20;;
66589;Laerm;53447;49.272;11.070;2023-08-06T03:16:54;41.63;35.19;45.56;;
66589;Laerm;53447;49.272;11.070;2023-08-06T03:19:19;42.49;38.73;51.57;;
66589;Laerm;53447;49.272;11.070;2023-08-06T03:21:45;41.18;35.62;43.19;;
66589;Laerm;53447;49.272;11.070;2023-08-06T03:24:10;40.85;33.86;42.77;;
66589;Laerm;53447;49.272;11.070;2023-08-06T03:26:35;40.88;34.70;49.77;;
66589;Laerm;53447;49.272;11.070;2023-08-06T03:29:00;40.63;32.40;48.47;;
66589;Laerm;53447;49.272;11.070;2023-08-06T03:31:25;41.03;35.82;48.30;;
66589;Laerm;53447;49.272;11.070;2023-08-06T03:33:51;40.92;36.71;46.33;;
66589;Laerm;53447;49.272;11.070;2023-08-06T03:36:16;40.75;36.20;45.09;;
66589;Laerm;53447;49.272;11.070;2023-08-06T03:38:41;40.52;34.16;42.93;;
66589;Laerm;53447;49.272;11.070;2023-08-06T03:41:06;42.47;39.12;47.78;;
66589;Laerm;53447;49.272;11.070;2023-08-06T03:43:31;40.77;34.70;43.23;;
66589;Laerm;53447;49.272;11.070;2023-08-06T03:45:57;42.19;38.83;51.03;;
66589;Laerm;53447;49.272;11.070;2023-08-06T03:48:22;43.15;39.30;52.31;;
66589;Laerm;53447;49.272;11.070;2023-08-06T03:50:47;40.97;35.41;44.60;;
66589;Laerm;53447;49.272;11.070;2023-08-06T03:53:12;42.21;29.39;52.57;;
66589;Laerm;53447;49.272;11.070;2023-08-06T03:55:38;42.26;39.21;46.43;;
66589;Laerm;53447;49.272;11.070;2023-08-06T03:58:03;41.63;37.71;53.65;;
66589;Laerm;53447;49.272;11.070;2023-08-06T04:00:28;43.42;36.02;52.87;;
66589;Laerm;53447;49.272;11.070;2023-08-06T04:02:53;43.65;40.39;54.08;;
66589;Laerm;53447;49.272;11.070;2023-08-06T04:05:19;42.17;39.12;54.20;;
66589;Laerm;53447;49.272;11.070;2023-08-06T04:07:44;41.80;38.93;48.68;;
66589;Laerm;53447;49.272;11.070;2023-08-06T04:10:09;41.78;37.17;47.48;;
66589;Laerm;53447;49.272;11.070;2023-08-06T04:12:34;42.06;36.20;60.44;;
66589;Laerm;53447;49.272;11.070;2023-08-06T04:15:03;46.23;39.21;60.23;;
66589;Laerm;53447;49.272;11.070;2023-08-06T04:17:31;42.61;37.17;62.16;;
66589;Laerm;53447;49.272;11.070;2023-08-06T04:20:06;42.13;38.08;51.72;;
66589;Laerm;53447;49.272;11.070;2023-08-06T04:22:31;41.59;35.41;58.99;;
66589;Laerm;53447;49.272;11.070;2023-08-06T04:24:56;41.65;34.70;61.48;;
66589;Laerm;53447;49.272;11.070;2023-08-06T04:27:22;42.52;36.71;62.48;;
66589;Laerm;53447;49.272;11.070;2023-08-06T04:29:47;41.25;35.62;62.51;;
66589;Laerm;53447;49.272;11.070;2023-08-06T04:32:12;40.61;35.19;46.02;;
66589;Laerm;53447;49.272;11.070;2023-08-06T04:34:37;41.51;34.70;61.15;;
66589;Laerm;53447;49.272;11.070;2023-08-06T04:37:03;41.87;36.20;64.00;;
66589;Laerm;53447;49.272;11.070;2023-08-06T04:39:28;42.29;37.71;55.28;;
66589;Laerm;53447;49.272;11.070;2023-08-06T04:41:54;42.75;35.82;61.69;;
66589;Laerm;53447;49.272;11.070;2023-08-06T04:44:20;42.00;36.55;58.21;;
66589;Laerm;53447;49.272;11.070;2023-08-06T04:46:45;41.19;37.96;52.02;;
66589;Laerm;53447;49.272;11.070;2023-08-06T04:49:10;41.42;38.42;48.52;;
66589;Laerm;53447;49.272;11.070;2023-08-06T04:51:36;48.05;37.84;65.34;;
66589;Laerm;53447;49.272;11.070;2023-08-06T04:54:01;41.96;39.03;51.95;;
66589;Laerm;53447;49.272;11.070;2023-08-06T04:56:26;41.66;39.12;45.47;;
66589;Laerm;53447;49.272;11.070;2023-08-06T04:58:52;42.22;37.96;47.74;;
66589;Laerm;53447;49.272;11.070;2023-08-06T05:01:17;41.48;37.17;51.33;;
66589;Laerm;53447;49.272;11.070;2023-08-06T05:03:42;41.36;36.71;51.43;;
66589;Laerm;53447;49.272;11.070;2023-08-06T05:06:07;41.43;37.45;48.38;;
66589;Laerm;53447;49.272;11.070;2023-08-06T05:08:33;42.17;38.63;58.19;;
66589;Laerm;53447;49.272;11.070;2023-08-06T05:10:58;41.56;38.20;47.68;;
66589;Laerm;53447;49.272;11.070;2023-08-06T05:13:23;41.55;37.17;54.50;;
66589;Laerm;53447;49.272;11.070;2023-08-06T05:15:50;41.87;37.02;54.08;;
66589;Laerm;53447;49.272;11.070;2023-08-06T05:18:15;47.43;37.84;63.03;;
66589;Laerm;53447;49.272;11.070;2023-08-06T05:20:41;41.38;37.17;51.04;;
66589;Laerm;53447;49.272;11.070;2023-08-06T05:23:06;41.18;37.45;50.31;;
66589;Laerm;53447;49.272;11.070;2023-08-06T05:25:31;43.49;37.31;56.38;;
66589;Laerm;53447;49.272;11.070;2023-08-06T05:27:57;41.82;37.71;62.73;;
66589;Laerm;53447;49.272;11.070;2023-08-06T05:30:22;41.01;36.55;47.31;;
66589;Laerm;53447;49.272;11.070;2023-08-06T05:32:47;41.33;36.55;57.77;;
66589;Laerm;53447;49.272;11.070;2023-08-06T05:35:12;42.32;37.17;60.32;;
66589;Laerm;53447;49.272;11.070;2023-08-06T05:37:37;47.17;39.39;67.67;;
66589;Laerm;53447;49.272;11.070;2023-08-06T05:40:03;41.89;37.31;57.01;;
66589;Laerm;53447;49.272;11.070;2023-08-06T05:42:29;41.54;38.53;45.60;;
66589;Laerm;53447;49.272;11.070;2023-08-06T05:44:54;42.24;38.93;47.54;;
66589;Laerm;53447;49.272;11.070;2023-08-06T05:47:19;41.18;37.71;43.40;;
66589;Laerm;53447;49.272;11.070;2023-08-06T05:49:45;41.48;37.02;48.90;;
66589;Laerm;53447;49.272;11.070;2023-08-06T05:52:10;41.11;37.58;51.14;;
66589;Laerm;53447;49.272;11.070;2023-08-06T05:54:35;41.84;37.37;48.71;;
66589;Laerm;53447;49.272;11.070;2023-08-06T05:57:00;41.52;37.96;47.52;;
66589;Laerm;53447;49.272;11.070;2023-08-06T05:59:25;41.39;38.53;43.89;;
66589;Laerm;53447;49.272;11.070;2023-08-06T06:01:51;47.55;36.87;64.66;;
66589;Laerm;53447;49.272;11.070;2023-08-06T06:04:16;40.94;37.45;51.42;;
66589;Laerm;53447;49.272;11.070;2023-08-06T06:06:41;40.88;37.02;49.35;;
66589;Laerm;53447;49.272;11.070;2023-08-06T06:09:07;41.08;37.02;57.94;;
66589;Laerm;53447;49.272;11.070;2023-08-06T06:11:32;40.14;35.62;51.30;;
66589;Laerm;53447;49.272;11.070;2023-08-06T06:13:57;45.43;36.38;65.79;;
66589;Laerm;53447;49.272;11.070;2023-08-06T06:16:22;45.38;36.97;67.90;;
66589;Laerm;53447;49.272;11.070;2023-08-06T06:18:48;40.85;37.31;60.33;;
66589;Laerm;53447;49.272;11.070;2023-08-06T06:21:13;40.41;35.19;45.56;;
66589;Laerm;53447;49.272;11.070;2023-08-06T06:23:38;48.39;36.71;66.83;;
66589;Laerm;53447;49.272;11.070;2023-08-06T06:26:03;49.57;39.12;58.41;;
66589;Laerm;53447;49.272;11.070;2023-08-06T06:28:29;51.19;40.79;68.08;;
66589;Laerm;53447;49.272;11.070;2023-08-06T06:30:54;42.24;40.25;55.78;;
66589;Laerm;53447;49.272;11.070;2023-08-06T06:33:24;52.48;40.44;70.80;;
66589;Laerm;53447;49.272;11.070;2023-08-06T06:35:49;42.74;39.30;59.35;;
66589;Laerm;53447;49.272;11.070;2023-08-06T06:38:15;42.52;40.59;50.25;;
66589;Laerm;53447;49.272;11.070;2023-08-06T06:40:40;43.18;40.03;62.73;;
66589;Laerm;53447;49.272;11.070;2023-08-06T06:43:05;51.18;40.39;69.73;;
66589;Laerm;53447;49.272;11.070;2023-08-06T06:45:30;44.12;37.02;57.25;;
66589;Laerm;53447;49.272;11.070;2023-08-06T06:47:55;41.66;35.82;58.12;;
66589;Laerm;53447;49.272;11.070;2023-08-06T06:50:21;41.25;37.84;43.89;;
66589;Laerm;53447;49.272;11.070;2023-08-06T06:52:46;43.70;39.64;56.81;;
66589;Laerm;53447;49.272;11.070;2023-08-06T06:55:11;41.64;37.58;51.72;;
66589;Laerm;53447;49.272;11.070;2023-08-06T06:57:36;42.98;40.25;54.26;;
66589;Laerm;53447;49.272;11.070;2023-08-06T07:00:02;52.17;36.87;71.63;;
66589;Laerm;53447;49.272;11.070;2023-08-06T07:02:27;41.57;37.17;53.34;;
66589;Laerm;53447;49.272;11.070;2023-08-06T07:04:53;40.92;37.02;46.04;;
66589;Laerm;53447;49.272;11.070;2023-08-06T07:07:18;41.19;36.87;57.51;;
66589;Laerm;53447;49.272;11.070;2023-08-06T07:09:44;42.34;38.20;53.83;;
66589;Laerm;53447;49.272;11.070;2023-08-06T07:12:09;40.42;36.55;49.98;;
66589;Laerm;53447;49.272;11.070;2023-08-06T07:14:34;40.42;36.20;52.18;;
66589;Laerm;53447;49.272;11.070;2023-08-06T07:16:59;41.17;37.84;45.16;;
66589;Laerm;53447;49.272;11.070;2023-08-06T07:19:25;40.87;36.71;52.96;;
66589;Laerm;53447;49.272;11.070;2023-08-06T07:21:50;50.20;36.87;70.03;;
66589;Laerm;53447;49.272;11.070;2023-08-06T07:24:15;40.32;37.02;50.05;;
66589;Laerm;53447;49.272;11.070;2023-08-06T07:26:40;41.60;36.03;53.59;;
66589;Laerm;53447;49.272;11.070;2023-08-06T07:29:06;42.63;37.17;55.03;;
66589;Laerm;53447;49.272;11.070;2023-08-06T07:31:31;46.39;40.53;59.08;;
66589;Laerm;53447;49.272;11.070;2023-08-06T07:33:56;50.57;36.55;69.20;;
66589;Laerm;53447;49.272;11.070;2023-08-06T07:36:21;40.74;36.71;53.58;;
66589;Laerm;53447;49.272;11.070;2023-08-06T07:38:47;40.45;36.55;54.33;;
66589;Laerm;53447;49.272;11.070;2023-08-06T07:41:16;44.39;36.71;69.68;;
66589;Laerm;53447;49.272;11.070;2023-08-06T07:43:41;40.91;37.31;52.48;;
66589;Laerm;53447;49.272;11.070;2023-08-06T07:46:07;47.75;37.58;62.91;;
66589;Laerm;53447;49.272;11.070;2023-08-06T07:48:32;49.21;43.33;58.25;;
66589;Laerm;53447;49.272;11.070;2023-08-06T07:50:58;53.18;45.43;61.01;;
66589;Laerm;53447;49.272;11.070;2023-08-06T07:53:24;51.13;42.65;58.86;;
66589;Laerm;53447;49.272;11.070;2023-08-06T07:55:52;43.37;38.73;59.28;;
66589;Laerm;53447;49.272;11.070;2023-08-06T07:58:18;42.58;38.83;62.78;;
66589;Laerm;53447;49.272;11.070;2023-08-06T08:00:43;42.17;37.84;62.81;;
66589;Laerm;53447;49.272;11.070;2023-08-06T08:03:14;52.94;38.08;71.00;;
66589;Laerm;53447;49.272;11.070;2023-08-06T08:05:39;42.65;37.71;54.51;;
66589;Laerm;53447;49.272;11.070;2023-08-06T08:08:05;41.52;37.02;55.06;;
66589;Laerm;53447;49.272;11.070;2023-08-06T08:10:30;48.55;37.71;67.50;;
66589;Laerm;53447;49.272;11.070;2023-08-06T08:12:56;45.23;37.71;64.79;;
66589;Laerm;53447;49.272;11.070;2023-08-06T08:15:21;42.71;37.96;62.63;;
66589;Laerm;53447;49.272;11.070;2023-08-06T08:17:46;40.70;37.45;51.05;;
66589;Laerm;53447;49.272;11.070;2023-08-06T08:20:12;50.87;39.12;67.89;;
66589;Laerm;53447;49.272;11.070;2023-08-06T08:22:38;50.89;37.84;70.80;;
66589;Laerm;53447;49.272;11.070;2023-08-06T08:25:03;47.78;40.18;66.52;;
66589;Laerm;53447;49.272;11.070;2023-08-06T08:27:29;42.74;38.42;61.63;;
66589;Laerm;53447;49.272;11.070;2023-08-06T08:29:55;46.50;39.72;60.22;;
66589;Laerm;53447;49.272;11.070;2023-08-06T08:32:20;46.34;39.12;67.57;;
66589;Laerm;53447;49.272;11.070;2023-08-06T08:34:45;49.44;39.30;74.69;;
66589;Laerm;53447;49.272;11.070;2023-08-06T08:37:10;40.47;36.71;47.33;;
66589;Laerm;53447;49.272;11.070;2023-08-06T08:39:35;42.85;37.02;54.60;;
66589;Laerm;53447;49.272;11.070;2023-08-06T08:42:01;42.29;37.71;53.73;;
66589;Laerm;53447;49.272;11.070;2023-08-06T08:44:27;48.80;37.71;66.07;;
66589;Laerm;53447;49.272;11.070;2023-08-06T08:46:54;46.24;38.53;62.64;;
66589;Laerm;53447;49.272;11.070;2023-08-06T08:49:20;52.33;37.96;71.63;;
66589;Laerm;53447;49.272;11.070;2023-08-06T08:51:46;44.52;38.73;65.99;;
66589;Laerm;53447;49.272;11.070;2023-08-06T08:54:11;52.65;39.12;70.15;;
66589;Laerm;53447;49.272;11.070;2023-08-06T08:56:38;43.03;38.53;62.61;;
66589;Laerm;53447;49.272;11.070;2023-08-06T08:59:03;41.72;37.96;55.88;;
66589;Laerm;53447;49.272;11.070;2023-08-06T09:01:28;42.00;37.84;56.40;;
66589;Laerm;53447;49.272;11.070;2023-08-06T09:03:54;49.93;37.71;68.07;;
66589;Laerm;53447;49.272;11.070;2023-08-06T09:06:19;42.04;38.42;52.79;;
66589;Laerm;53447;49.272;11.070;2023-08-06T09:08:56;47.43;39.38;61.24;;
66589;Laerm;53447;49.272;11.070;2023-08-06T09:11:24;49.33;37.71;66.29;;
66589;Laerm;53447;49.272;11.070;2023-08-06T09:13:50;47.05;37.96;64.63;;
66589;Laerm;53447;49.272;11.070;2023-08-06T09:16:15;42.62;38.20;57.48;;
66589;Laerm;53447;49.272;11.070;2023-08-06T09:18:41;41.20;37.96;50.10;;
66589;Laerm;53447;49.272;11.070;2023-08-06T09:21:06;41.48;35.82;55.80;;
66589;Laerm;53447;49.272;11.070;2023-08-06T09:23:38;41.75;37.02;63.37;;
66589;Laerm;53447;49.272;11.070;2023-08-06T09:26:03;45.25;36.87;64.73;;
66589;Laerm;53447;49.272;11.070;2023-08-06T09:28:37;43.74;39.48;59.86;;
66589;Laerm;53447;49.272;11.070;2023-08-06T09:31:08;52.15;42.36;70.82;;
66589;Laerm;53447;49.272;11.070;2023-08-06T09:33:35;44.44;39.39;61.21;;
66589;Laerm;53447;49.272;11.070;2023-08-06T09:36:07;51.33;39.80;75.85;;
66589;Laerm;53447;49.272;11.070;2023-08-06T09:38:37;50.86;39.88;66.87;;
66589;Laerm;53447;49.272;11.070;2023-08-06T09:41:03;43.78;39.03;59.73;;
66589;Laerm;53447;49.272;11.070;2023-08-06T09:43:28;58.02;39.56;72.90;;
66589;Laerm;53447;49.272;11.070;2023-08-06T09:45:53;42.19;38.63;52.69;;
66589;Laerm;53447;49.272;11.070;2023-08-06T09:48:20;42.68;39.64;54.36;;
66589;Laerm;53447;49.272;11.070;2023-08-06T09:50:49;42.93;39.12;54.51;;
66589;Laerm;53447;49.272;11.070;2023-08-06T09:53:17;42.48;39.72;56.29;;
66589;Laerm;53447;49.272;11.070;2023-08-06T09:55:47;45.29;39.72;62.86;;
66589;Laerm;53447;49.272;11.070;2023-08-06T09:58:13;49.31;39.72;67.13;;
66589;Laerm;53447;49.272;11.070;2023-08-06T10:00:39;52.15;39.56;71.09;;
66589;Laerm;53447;49.272;11.070;2023-08-06T10:03:05;50.43;42.04;67.97;;
66589;Laerm;53447;49.272;11.070;2023-08-06T10:05:31;50.39;39.72;74.80;;
66589;Laerm;53447;49.272;11.070;2023-08-06T10:07:57;47.37;39.80;66.83;;
66589;Laerm;53447;49.272;11.070;2023-08-06T10:10:24;42.42;38.08;61.96;;
66589;Laerm;53447;49.272;11.070;2023-08-06T10:12:50;41.54;38.20;55.37;;
66589;Laerm;53447;49.272;11.070;2023-08-06T10:15:17;49.05;38.53;67.14;;
66589;Laerm;53447;49.272;11.070;2023-08-06T10:17:44;43.04;37.37;63.74;;
66589;Laerm;53447;49.272;11.070;2023-08-06T10:20:10;42.25;38.53;56.30;;
66589;Laerm;53447;49.272;11.070;2023-08-06T10:22:36;40.62;37.02;46.36;;
66589;Laerm;53447;49.272;11.070;2023-08-06T10:25:02;42.58;37.31;59.09;;
66589;Laerm;53447;49.272;11.070;2023-08-06T10:32:49;42.71;37.31;55.44;;
66589;Laerm;53447;49.272;11.070;2023-08-06T10:38:09;40.89;37.96;44.80;;
66589;Laerm;53447;49.272;11.070;2023-08-06T10:40:36;43.07;36.20;59.14;;
66589;Laerm;53447;49.272;11.070;2023-08-06T10:43:01;42.22;38.31;59.28;;
66589;Laerm;53447;49.272;11.070;2023-08-06T10:45:27;42.94;39.12;56.12;;
66589;Laerm;53447;49.272;11.070;2023-08-06T10:47:54;47.33;38.31;69.67;;
66589;Laerm;53447;49.272;11.070;2023-08-06T10:50:20;44.09;38.20;64.42;;
66589;Laerm;53447;49.272;11.070;2023-08-06T10:52:46;42.05;38.63;51.93;;
66589;Laerm;53447;49.272;11.070;2023-08-06T10:55:12;54.60;38.73;72.81;;
66589;Laerm;53447;49.272;11.070;2023-08-06T10:57:37;49.09;40.03;68.82;;
66589;Laerm;53447;49.272;11.070;2023-08-06T11:00:06;42.90;39.03;55.01;;
66589;Laerm;53447;49.272;11.070;2023-08-06T11:02:33;47.85;38.53;65.96;;
66589;Laerm;53447;49.272;11.070;2023-08-06T11:05:04;45.06;38.31;57.40;;
66589;Laerm;53447;49.272;11.070;2023-08-06T11:07:29;45.76;38.73;63.17;;
66589;Laerm;53447;49.272;11.070;2023-08-06T11:10:00;51.44;39.21;66.26;;
66589;Laerm;53447;49.272;11.070;2023-08-06T11:12:26;46.40;40.03;60.18;;
66589;Laerm;53447;49.272;11.070;2023-08-06T11:14:51;45.42;39.72;66.11;;
66589;Laerm;53447;49.272;11.070;2023-08-06T11:17:16;43.37;39.03;61.30;;
66589;Laerm;53447;49.272;11.070;2023-08-06T11:19:42;53.44;37.71;72.20;;
66589;Laerm;53447;49.272;11.070;2023-08-06T11:22:07;46.60;37.84;67.71;;
66589;Laerm;53447;49.272;11.070;2023-08-06T11:24:32;42.12;38.63;50.43;;
66589;Laerm;53447;49.272;11.070;2023-08-06T11:26:57;43.06;39.48;55.77;;
66589;Laerm;53447;49.272;11.070;2023-08-06T11:29:23;43.84;39.12;55.99;;
66589;Laerm;53447;49.272;11.070;2023-08-06T11:31:49;46.00;38.53;62.87;;
66589;Laerm;53447;49.272;11.070;2023-08-06T11:34:14;49.05;39.12;66.80;;
66589;Laerm;53447;49.272;11.070;2023-08-06T11:36:40;42.27;38.83;52.86;;
66589;Laerm;53447;49.272;11.070;2023-08-06T11:39:05;43.39;38.08;61.84;;
66589;Laerm;53447;49.272;11.070;2023-08-06T11:41:33;44.87;39.12;64.45;;
66589;Laerm;53447;49.272;11.070;2023-08-06T11:43:59;41.81;38.42;48.22;;
66589;Laerm;53447;49.272;11.070;2023-08-06T11:46:25;42.20;38.63;56.27;;
66589;Laerm;53447;49.272;11.070;2023-08-06T11:48:54;44.44;38.08;64.47;;
66589;Laerm;53447;49.272;11.070;2023-08-06T11:51:23;44.30;40.59;54.34;;
66589;Laerm;53447;49.272;11.070;2023-08-06T11:53:49;56.39;40.59;74.73;;
66589;Laerm;53447;49.272;11.070;2023-08-06T11:56:15;46.06;41.32;66.99;;
66589;Laerm;53447;49.272;11.070;2023-08-06T11:58:43;51.81;42.77;77.60;;
66589;Laerm;53447;49.272;11.070;2023-08-06T12:01:08;46.42;41.64;65.25;;
66589;Laerm;53447;49.272;11.070;2023-08-06T12:03:39;58.59;40.18;80.30;;
66589;Laerm;53447;49.272;11.070;2023-08-06T12:06:04;43.46;38.31;61.01;;
66589;Laerm;53447;49.272;11.070;2023-08-06T12:08:29;41.29;37.84;52.66;;
66589;Laerm;53447;49.272;11.070;2023-08-06T12:10:54;41.50;36.87;54.97;;
66589;Laerm;53447;49.272;11.070;2023-08-06T12:13:19;41.51;38.42;56.26;;
66589;Laerm;53447;49.272;11.070;2023-08-06T12:15:45;52.18;37.02;71.83;;
66589;Laerm;53447;49.272;11.070;2023-08-06T12:18:10;41.12;37.45;58.51;;
66589;Laerm;53447;49.272;11.070;2023-08-06T12:20:35;51.47;38.93;67.19;;
66589;Laerm;53447;49.272;11.070;2023-08-06T12:23:01;42.48;37.96;58.37;;
66589;Laerm;53447;49.272;11.070;2023-08-06T12:25:26;41.64;37.71;51.98;;
66589;Laerm;53447;49.272;11.070;2023-08-06T12:27:51;42.88;38.20;60.09;;
66589;Laerm;53447;49.272;11.070;2023-08-06T12:30:16;42.45;37.96;56.70;;
66589;Laerm;53447;49.272;11.070;2023-08-06T12:32:42;55.27;38.08;69.89;;
66589;Laerm;53447;49.272;11.070;2023-08-06T12:35:07;43.71;39.30;59.10;;
66589;Laerm;53447;49.272;11.070;2023-08-06T12:37:33;54.83;38.63;75.27;;
66589;Laerm;53447;49.272;11.070;2023-08-06T12:39:58;57.52;40.25;83.60;;
66589;Laerm;53447;49.272;11.070;2023-08-06T12:42:23;51.17;40.46;70.70;;
66589;Laerm;53447;49.272;11.070;2023-08-06T12:44:49;47.82;41.26;63.46;;
66589;Laerm;53447;49.272;11.070;2023-08-06T12:47:15;54.81;40.25;75.62;;
66589;Laerm;53447;49.272;11.070;2023-08-06T12:49:40;50.61;39.96;68.83;;
66589;Laerm;53447;49.272;11.070;2023-08-06T12:52:06;50.43;41.38;73.68;;
66589;Laerm;53447;49.272;11.070;2023-08-06T12:54:32;57.16;41.84;79.34;;
66589;Laerm;53447;49.272;11.070;2023-08-06T12:57:04;50.97;41.64;71.58;;
66589;Laerm;53447;49.272;11.070;2023-08-06T12:59:29;55.73;41.21;81.62;;
66589;Laerm;53447;49.272;11.070;2023-08-06T13:01:55;51.00;40.59;66.00;;
66589;Laerm;53447;49.272;11.070;2023-08-06T13:04:20;51.43;40.25;75.87;;
66589;Laerm;53447;49.272;11.070;2023-08-06T13:06:45;42.39;39.21;58.04;;
66589;Laerm;53447;49.272;11.070;2023-08-06T13:09:11;43.20;39.21;63.53;;
66589;Laerm;53447;49.272;11.070;2023-08-06T13:11:36;43.65;39.56;59.46;;
66589;Laerm;53447;49.272;11.070;2023-08-06T13:14:07;44.87;40.59;53.48;;
66589;Laerm;53447;49.272;11.070;2023-08-06T13:16:33;55.22;41.38;74.39;;
66589;Laerm;53447;49.272;11.070;2023-08-06T13:18:58;50.88;39.21;69.95;;
66589;Laerm;53447;49.272;11.070;2023-08-06T13:21:23;55.42;43.04;78.48;;
66589;Laerm;53447;49.272;11.070;2023-08-06T13:23:48;44.36;41.54;54.40;;
66589;Laerm;53447;49.272;11.070;2023-08-06T13:26:14;57.58;43.19;81.77;;
66589;Laerm;53447;49.272;11.070;2023-08-06T13:28:40;50.53;43.08;69.75;;
66589;Laerm;53447;49.272;11.070;2023-08-06T13:31:06;46.62;42.93;67.30;;
66589;Laerm;53447;49.272;11.070;2023-08-06T13:33:31;54.11;42.97;71.16;;
66589;Laerm;53447;49.272;11.070;2023-08-06T13:35:56;60.99;43.15;83.52;;
66589;Laerm;53447;49.272;11.070;2023-08-06T13:38:22;58.64;42.36;85.82;;